Time;durP1;ratioP1;P1;durP2;ratioP2;P2;SDS_P1;SDS_P2;PMS_P1;PMS_P2;Temp;Humidity;BMP_temperature;BMP_pressure;BME280_temperature;BME280_humidity;BME280_pressure;Samples;Min_cycle;Max_cycle;Signal;HPM_P1;HPM_P2
2022/10/07 00:01:26;;;;;;;46.90;43.55;;;12.90;99.90;;;;;;4977167;28;20394;-61
2022/10/07 00:03:51;;;;;;;46.25;43.25;;;12.80;99.90;;;;;;4978204;28;20410;-61
2022/10/07 00:06:19;;;;;;;39.97;37.57;;;12.70;99.90;;;;;;4977099;28;20394;-60
2022/10/07 00:08:46;;;;;;;42.75;39.83;;;12.70;99.90;;;;;;4977493;28;20414;-61
2022/10/07 00:11:20;;;;;;;41.70;39.25;;;12.60;99.90;;;;;;4996110;28;20390;-60
2022/10/07 00:13:48;;;;;;;43.20;40.60;;;12.70;99.90;;;;;;4977615;28;20694;-59
2022/10/07 00:16:19;;;;;;;42.30;39.58;;;12.60;99.90;;;;;;4976849;28;20390;-59
2022/10/07 00:18:47;;;;;;;46.08;42.97;;;12.70;99.90;;;;;;4977391;28;21013;-59
2022/10/07 00:21:14;;;;;;;44.72;41.65;;;12.60;99.90;;;;;;4994905;28;20686;-58
2022/10/07 00:23:41;;;;;;;37.63;35.42;;;12.60;99.90;;;;;;4978296;28;20402;-59
2022/10/07 00:26:09;;;;;;;40.40;37.90;;;12.60;99.90;;;;;;4978287;28;20390;-61
2022/10/07 00:28:35;;;;;;;43.03;40.45;;;12.80;99.90;;;;;;4977389;28;20458;-59
2022/10/07 00:31:10;;;;;;;41.53;38.83;;;12.80;99.90;;;;;;4975914;28;20762;-57
2022/10/07 00:33:37;;;;;;;36.15;33.90;;;12.80;99.90;;;;;;4993483;28;20457;-60
2022/10/07 00:36:19;;;;;;;39.92;37.10;;;12.80;99.90;;;;;;4976999;28;20429;-59
2022/10/07 00:38:49;;;;;;;42.67;39.80;;;12.70;99.90;;;;;;4977115;28;20485;-60
2022/10/07 00:41:20;;;;;;;44.00;41.20;;;12.70;99.90;;;;;;4992599;28;20663;-60
2022/10/07 00:43:47;;;;;;;34.13;32.10;;;12.60;99.90;;;;;;4975711;28;20406;-58
2022/10/07 00:46:24;;;;;;;35.60;33.45;;;12.50;99.90;;;;;;4977430;28;20394;-60
2022/10/07 00:48:50;;;;;;;36.38;33.88;;;12.50;99.90;;;;;;4995423;28;20441;-58
2022/10/07 00:51:16;;;;;;;36.53;34.03;;;12.50;99.90;;;;;;4995405;28;20423;-60
2022/10/07 00:53:46;;;;;;;38.15;35.70;;;12.50;99.90;;;;;;4977416;28;20415;-59
2022/10/07 00:56:13;;;;;;;35.50;33.38;;;12.50;99.90;;;;;;4978875;28;20775;-59
2022/10/07 00:58:41;;;;;;;37.38;34.72;;;12.50;99.90;;;;;;4979021;28;20460;-60
2022/10/07 01:01:08;;;;;;;36.67;34.37;;;12.50;99.90;;;;;;4994529;28;20388;-60
2022/10/07 01:03:35;;;;;;;36.67;34.07;;;12.40;99.90;;;;;;4994353;28;21002;-60
2022/10/07 01:06:02;;;;;;;35.13;32.73;;;12.40;99.90;;;;;;4977170;28;20472;-60
2022/10/07 01:08:28;;;;;;;36.10;34.00;;;12.40;99.90;;;;;;4975286;28;20382;-59
2022/10/07 01:11:01;;;;;;;36.30;33.90;;;12.40;99.90;;;;;;4993307;28;20790;-60
2022/10/07 01:13:34;;;;;;;39.63;36.73;;;12.30;99.90;;;;;;4991727;28;20883;-60
2022/10/07 01:16:12;;;;;;;35.05;32.85;;;12.30;99.90;;;;;;4991040;28;20397;-59
2022/10/07 01:18:54;;;;;;;35.63;33.42;;;12.30;99.90;;;;;;4993455;28;20472;-59
2022/10/07 01:21:31;;;;;;;41.03;38.60;;;12.30;99.90;;;;;;4976668;28;20779;-60
2022/10/07 01:24:15;;;;;;;35.17;32.53;;;12.20;99.90;;;;;;4976685;28;20453;-57
2022/10/07 01:26:54;;;;;;;38.17;35.78;;;12.30;99.90;;;;;;4994137;28;20792;-60
2022/10/07 01:29:25;;;;;;;40.33;37.67;;;12.20;99.90;;;;;;4977939;28;20397;-60
2022/10/07 01:32:12;;;;;;;40.35;37.58;;;12.10;99.90;;;;;;4995873;28;20379;-57
2022/10/07 01:34:41;;;;;;;41.30;38.72;;;12.10;99.90;;;;;;4978557;28;20437;-60
2022/10/07 01:37:11;;;;;;;38.75;35.67;;;12.10;99.90;;;;;;4995920;28;20383;-60
2022/10/07 01:39:42;;;;;;;36.60;34.10;;;12.10;99.90;;;;;;4994627;28;20486;-58
2022/10/07 01:42:09;;;;;;;36.83;34.55;;;12.10;99.90;;;;;;4979331;28;20790;-59
2022/10/07 01:44:35;;;;;;;38.30;35.70;;;12.00;99.90;;;;;;4978332;28;20414;-60
2022/10/07 01:47:00;;;;;;;37.97;35.63;;;12.00;99.90;;;;;;4977760;28;20390;-60
2022/10/07 01:49:26;;;;;;;37.00;34.53;;;11.90;99.90;;;;;;4994608;28;20880;-60
2022/10/07 01:52:33;;;;;;;40.42;37.90;;;11.90;99.90;;;;;;4976993;28;20394;-60
2022/10/07 01:55:30;;;;;;;43.93;40.73;;;11.90;99.90;;;;;;4947337;28;20556;-60
2022/10/07 01:58:26;;;;;;;41.80;39.15;;;11.80;99.90;;;;;;4975448;28;20390;-60
2022/10/07 02:01:13;;;;;;;43.05;40.33;;;11.80;99.90;;;;;;4993108;28;20673;-58
2022/10/07 02:04:09;;;;;;;44.47;41.45;;;11.80;99.90;;;;;;4975770;28;20481;-59
2022/10/07 02:06:59;;;;;;;43.97;41.38;;;11.80;99.90;;;;;;4993035;28;20670;-59
2022/10/07 02:09:30;;;;;;;40.03;37.77;;;11.80;99.90;;;;;;4975277;28;20379;-60
2022/10/07 02:12:06;;;;;;;39.25;36.55;;;11.70;99.90;;;;;;4992845;28;20806;-60
2022/10/07 02:14:39;;;;;;;41.80;39.13;;;11.70;99.90;;;;;;4993657;28;20428;-60
2022/10/07 02:17:13;;;;;;;42.92;40.17;;;11.70;99.90;;;;;;4976064;28;20406;-56
2022/10/07 02:19:42;;;;;;;40.72;38.10;;;11.70;99.90;;;;;;4975883;28;20390;-59
2022/10/07 02:22:10;;;;;;;36.58;33.90;;;11.70;99.90;;;;;;4975343;28;20453;-57
2022/10/07 02:24:38;;;;;;;40.28;37.40;;;11.60;99.90;;;;;;4973219;28;20390;-60
2022/10/07 02:27:09;;;;;;;38.97;36.53;;;11.60;99.90;;;;;;4974903;28;20390;-60
2022/10/07 02:29:36;;;;;;;37.50;35.30;;;11.50;99.90;;;;;;4975846;28;20390;-60
2022/10/07 02:32:08;;;;;;;40.22;37.55;;;11.50;99.90;;;;;;4976253;28;20671;-60
2022/10/07 02:34:35;;;;;;;33.33;31.03;;;11.50;99.90;;;;;;4975454;28;20853;-60
2022/10/07 02:37:05;;;;;;;36.30;33.75;;;11.50;99.90;;;;;;4974718;28;20398;-60
2022/10/07 02:39:30;;;;;;;35.90;33.53;;;11.50;99.90;;;;;;4975919;28;20422;-60
2022/10/07 02:42:18;;;;;;;35.67;32.97;;;11.40;99.90;;;;;;4974068;28;20422;-59
2022/10/07 02:45:00;;;;;;;36.38;33.85;;;11.40;99.90;;;;;;4974965;28;20393;-58
2022/10/07 02:47:48;;;;;;;34.72;32.42;;;11.30;99.90;;;;;;4991745;28;20430;-60
2022/10/07 02:50:19;;;;;;;37.47;35.10;;;11.20;99.90;;;;;;4974711;28;20443;-60
2022/10/07 02:52:45;;;;;;;36.90;34.53;;;11.20;99.90;;;;;;4974364;28;20402;-60
2022/10/07 02:55:14;;;;;;;37.25;34.95;;;11.20;99.90;;;;;;4991199;28;20706;-60
2022/10/07 02:57:44;;;;;;;37.83;35.42;;;11.20;99.90;;;;;;4974259;28;20832;-60
2022/10/07 03:00:12;;;;;;;36.55;34.03;;;11.20;99.90;;;;;;4972176;28;20478;-59
2022/10/07 03:02:41;;;;;;;36.55;34.30;;;11.20;99.90;;;;;;4988214;28;20501;-60
2022/10/07 03:05:08;;;;;;;39.72;37.28;;;11.20;99.90;;;;;;4989034;28;20767;-60
2022/10/07 03:07:34;;;;;;;38.65;36.00;;;11.20;99.90;;;;;;4973507;28;20644;-57
2022/10/07 03:10:01;;;;;;;36.50;34.38;;;11.10;99.90;;;;;;4974029;28;20398;-60
2022/10/07 03:12:27;;;;;;;36.25;34.03;;;11.20;99.90;;;;;;4973794;28;20410;-59
2022/10/07 03:14:53;;;;;;;35.90;33.50;;;11.20;99.90;;;;;;4992031;28;20461;-60
2022/10/07 03:18:05;;;;;;;38.65;36.10;;;11.20;99.90;;;;;;4975535;28;20500;-59
2022/10/07 03:20:31;;;;;;;33.90;31.70;;;11.20;99.90;;;;;;4991448;28;20501;-60
2022/10/07 03:23:01;;;;;;;35.70;33.43;;;11.20;99.90;;;;;;4989684;28;20566;-61
2022/10/07 03:25:26;;;;;;;33.67;31.33;;;11.20;99.90;;;;;;4990192;28;20617;-60
2022/10/07 03:27:53;;;;;;;36.60;33.90;;;11.10;99.90;;;;;;4972285;28;20402;-60
2022/10/07 03:30:21;;;;;;;39.10;36.30;;;11.00;99.90;;;;;;4973143;28;20530;-56
2022/10/07 03:32:48;;;;;;;42.28;39.63;;;10.90;99.90;;;;;;4974006;28;20674;-60
2022/10/07 03:35:14;;;;;;;42.42;39.70;;;10.80;99.90;;;;;;4991464;28;20414;-60
2022/10/07 03:37:39;;;;;;;42.40;39.88;;;10.70;99.90;;;;;;4977981;28;20559;-59
2022/10/07 03:40:05;;;;;;;43.83;40.63;;;10.80;99.90;;;;;;4977662;28;20403;-58
2022/10/07 03:42:31;;;;;;;42.92;40.22;;;10.80;99.90;;;;;;4993580;28;20422;-59
2022/10/07 03:44:57;;;;;;;40.50;38.03;;;10.80;99.90;;;;;;4976907;28;20391;-58
2022/10/07 03:47:22;;;;;;;44.60;41.63;;;10.80;99.90;;;;;;4993631;28;20394;-59
2022/10/07 03:49:48;;;;;;;44.67;41.70;;;10.70;99.90;;;;;;4992405;28;20395;-60
2022/10/07 03:52:13;;;;;;;42.45;39.75;;;10.70;99.90;;;;;;4971848;28;20398;-60
2022/10/07 03:54:39;;;;;;;43.53;40.78;;;10.80;99.90;;;;;;4971556;28;20492;-58
2022/10/07 03:57:48;;;;;;;42.60;39.97;;;10.60;99.90;;;;;;4991225;28;20509;-59
2022/10/07 03:59:53;;;;;;;39.90;37.60;;;10.70;99.90;;;;;;4991634;28;20394;-60
2022/10/07 04:02:22;;;;;;;44.83;42.10;;;10.60;99.90;;;;;;4974532;28;20414;-59
2022/10/07 04:04:50;;;;;;;42.08;39.25;;;10.60;99.90;;;;;;4977341;28;20456;-59
2022/10/07 04:07:15;;;;;;;40.80;38.13;;;10.60;99.90;;;;;;4976285;28;20448;-59
2022/10/07 04:09:41;;;;;;;37.38;35.05;;;10.60;99.90;;;;;;4976586;28;20481;-60
2022/10/07 04:12:07;;;;;;;39.78;37.28;;;10.50;99.90;;;;;;4992441;28;20501;-60
2022/10/07 04:14:33;;;;;;;36.00;33.80;;;10.50;99.90;;;;;;4990777;28;20386;-58
2022/10/07 04:16:59;;;;;;;38.85;36.38;;;10.50;99.90;;;;;;4987360;28;20402;-59
2022/10/07 04:19:25;;;;;;;37.70;35.25;;;10.50;99.90;;;;;;4969442;28;20391;-60
2022/10/07 04:21:51;;;;;;;37.10;34.63;;;10.60;99.90;;;;;;4969851;28;20481;-60
2022/10/07 04:24:17;;;;;;;37.50;35.07;;;10.60;99.90;;;;;;4969069;28;20417;-59
2022/10/07 04:26:42;;;;;;;38.90;36.20;;;10.60;99.90;;;;;;4969688;28;20399;-59
2022/10/07 04:29:08;;;;;;;35.88;33.38;;;10.70;99.90;;;;;;4986660;28;20500;-60
2022/10/07 04:31:33;;;;;;;36.35;33.75;;;10.70;99.90;;;;;;4971865;28;20402;-59
2022/10/07 04:33:59;;;;;;;37.27;34.90;;;10.50;99.90;;;;;;4988207;28;20493;-60
2022/10/07 04:36:26;;;;;;;35.83;33.43;;;10.50;99.90;;;;;;4989149;28;20394;-58
2022/10/07 04:38:51;;;;;;;38.70;36.28;;;10.50;99.90;;;;;;4989609;28;20821;-60
2022/10/07 04:41:17;;;;;;;38.88;36.25;;;10.30;99.90;;;;;;4989729;28;20390;-59
2022/10/07 04:43:42;;;;;;;41.00;38.17;;;10.30;99.90;;;;;;4970745;28;20409;-59
2022/10/07 04:46:13;;;;;;;35.73;33.50;;;10.20;99.90;;;;;;4970826;28;20829;-58
2022/10/07 04:48:39;;;;;;;39.95;37.30;;;10.20;99.90;;;;;;4969145;28;20386;-60
2022/10/07 04:51:07;;;;;;;38.03;35.63;;;10.30;99.90;;;;;;4969178;28;20735;-59
2022/10/07 04:53:34;;;;;;;39.50;36.85;;;10.30;99.90;;;;;;4969843;28;20393;-59
2022/10/07 04:56:00;;;;;;;37.60;34.70;;;10.30;99.90;;;;;;4968828;28;20461;-60
2022/10/07 04:58:27;;;;;;;36.27;33.93;;;10.30;99.90;;;;;;4986039;28;20399;-60
2022/10/07 05:00:53;;;;;;;37.15;34.67;;;10.20;99.90;;;;;;4985385;28;20637;-60
2022/10/07 05:03:22;;;;;;;36.53;34.22;;;10.20;99.90;;;;;;4969727;28;20410;-61
2022/10/07 05:05:50;;;;;;;37.57;35.03;;;10.20;99.90;;;;;;4987354;28;20464;-60
2022/10/07 05:08:18;;;;;;;35.57;33.43;;;10.20;99.90;;;;;;4970215;28;20383;-58
2022/10/07 05:10:44;;;;;;;36.42;33.88;;;10.20;99.90;;;;;;4972140;28;20426;-60
2022/10/07 05:13:12;;;;;;;34.75;32.63;;;10.10;99.90;;;;;;4987526;28;20425;-59
2022/10/07 05:15:56;;;;;;;37.45;34.65;;;10.10;99.90;;;;;;4989887;28;20934;-58
2022/10/07 05:18:23;;;;;;;36.33;33.85;;;10.10;99.90;;;;;;4972443;28;20478;-60
2022/10/07 05:20:49;;;;;;;37.28;34.83;;;10.10;99.90;;;;;;4989951;28;20401;-60
2022/10/07 05:23:17;;;;;;;35.60;33.22;;;10.10;99.90;;;;;;4971944;28;20422;-60
2022/10/07 05:25:44;;;;;;;35.67;33.22;;;10.10;99.90;;;;;;4987612;28;20721;-58
2022/10/07 05:28:11;;;;;;;35.65;33.17;;;10.20;99.90;;;;;;4971902;28;20397;-60
2022/10/07 05:30:37;;;;;;;33.17;30.67;;;10.10;99.90;;;;;;4969664;28;20386;-60
2022/10/07 05:33:03;;;;;;;35.53;32.95;;;10.10;99.90;;;;;;4966742;28;20493;-59
2022/10/07 05:35:30;;;;;;;35.38;32.80;;;10.00;99.90;;;;;;4965350;28;20414;-59
2022/10/07 05:37:56;;;;;;;35.35;32.85;;;10.00;99.90;;;;;;4964535;28;20737;-60
2022/10/07 05:40:22;;;;;;;36.97;34.33;;;10.00;99.90;;;;;;4962975;28;20465;-60
2022/10/07 05:42:48;;;;;;;36.78;34.40;;;10.00;99.90;;;;;;4961069;28;20564;-60
2022/10/07 05:45:16;;;;;;;37.28;34.67;;;10.00;99.90;;;;;;4959985;28;21378;-59
2022/10/07 05:47:42;;;;;;;38.17;35.80;;;10.00;99.90;;;;;;4974863;28;20805;-59
2022/10/07 05:50:08;;;;;;;39.57;36.73;;;10.10;99.90;;;;;;4974603;28;20401;-58
2022/10/07 05:52:34;;;;;;;37.58;34.75;;;10.10;99.90;;;;;;4956400;28;20962;-60
2022/10/07 05:55:00;;;;;;;34.30;32.20;;;10.10;99.90;;;;;;4959481;28;20658;-59
2022/10/07 05:57:25;;;;;;;36.53;33.83;;;10.10;99.90;;;;;;4958401;28;20602;-60
2022/10/07 05:59:51;;;;;;;38.33;35.83;;;10.10;99.90;;;;;;4957985;28;20398;-57
2022/10/07 06:02:17;;;;;;;35.58;32.85;;;10.00;99.90;;;;;;4956918;28;20627;-60
2022/10/07 06:04:47;;;;;;;39.45;36.65;;;10.00;99.90;;;;;;4959275;28;20394;-60
2022/10/07 06:07:13;;;;;;;41.05;38.33;;;10.00;99.90;;;;;;4960007;28;20611;-60
2022/10/07 06:15:16;;;;;;;42.67;39.40;;;9.80;99.90;;;;;;4976343;28;20457;-58
2022/10/07 06:17:43;;;;;;;44.50;41.50;;;9.70;99.90;;;;;;4960708;28;20395;-58
2022/10/07 06:20:10;;;;;;;45.88;42.60;;;9.70;99.90;;;;;;4978707;28;20667;-59
2022/10/07 06:22:36;;;;;;;44.75;41.42;;;9.80;99.90;;;;;;4963121;28;20481;-57
2022/10/07 06:25:01;;;;;;;46.45;43.38;;;9.90;99.90;;;;;;4964007;28;20402;-59
2022/10/07 06:27:28;;;;;;;44.78;41.92;;;9.90;99.90;;;;;;4981389;28;20480;-55
2022/10/07 06:29:53;;;;;;;44.88;42.17;;;10.00;99.90;;;;;;4979922;28;20441;-57
2022/10/07 06:32:19;;;;;;;50.63;47.63;;;10.00;99.90;;;;;;4961212;28;20718;-59
2022/10/07 06:34:45;;;;;;;45.92;42.95;;;10.00;99.90;;;;;;4974876;28;20414;-57
2022/10/07 06:37:10;;;;;;;46.60;43.40;;;10.10;99.90;;;;;;4972893;28;20561;-61
2022/10/07 06:39:36;;;;;;;47.57;44.50;;;10.00;99.90;;;;;;4957434;28;20394;-58
2022/10/07 06:42:02;;;;;;;46.63;43.37;;;9.90;99.90;;;;;;4973957;28;20390;-59
2022/10/07 06:44:29;;;;;;;47.10;43.83;;;9.90;99.90;;;;;;4975369;28;20404;-59
2022/10/07 06:46:54;;;;;;;50.42;47.13;;;9.90;99.90;;;;;;4955849;28;20706;-58
2022/10/07 06:49:20;;;;;;;50.75;47.63;;;9.90;99.90;;;;;;4958072;28;20895;-60
2022/10/07 06:51:48;;;;;;;48.97;45.63;;;10.00;99.90;;;;;;4960500;28;20386;-58
2022/10/07 06:54:13;;;;;;;46.63;43.60;;;10.00;99.90;;;;;;4977448;28;20642;-57
2022/10/07 06:56:39;;;;;;;47.07;44.00;;;10.00;99.90;;;;;;4976815;28;20559;-58
2022/10/07 06:59:05;;;;;;;45.40;42.22;;;10.10;99.90;;;;;;4961308;28;20397;-60
2022/10/07 07:01:30;;;;;;;47.10;43.90;;;10.10;99.90;;;;;;4977654;28;20390;-59
2022/10/07 07:03:56;;;;;;;48.50;45.53;;;10.00;99.90;;;;;;4958700;28;20835;-59
2022/10/07 07:06:22;;;;;;;47.53;44.30;;;10.00;99.90;;;;;;4973304;28;20603;-58
2022/10/07 07:08:49;;;;;;;51.40;47.90;;;10.00;99.90;;;;;;4954258;28;20386;-59
2022/10/07 07:14:00;;;;;;;46.63;43.50;;;10.20;99.90;;;;;;4974877;28;20587;-59
2022/10/07 07:16:25;;;;;;;47.95;44.75;;;10.20;99.90;;;;;;4955144;28;20391;-58
2022/10/07 07:18:52;;;;;;;47.87;44.37;;;10.20;99.90;;;;;;4974535;28;20394;-58
2022/10/07 07:21:18;;;;;;;48.75;45.38;;;10.20;99.90;;;;;;4952435;28;20574;-59
2022/10/07 07:23:44;;;;;;;48.50;45.27;;;10.30;99.90;;;;;;4951475;28;20446;-57
2022/10/07 07:26:10;;;;;;;48.73;45.60;;;10.30;99.90;;;;;;4956224;28;21028;-59
2022/10/07 07:28:36;;;;;;;48.47;45.22;;;10.40;99.90;;;;;;4957059;28;20488;-59
2022/10/07 07:31:08;;;;;;;49.37;45.97;;;10.40;99.90;;;;;;4975268;28;20718;-59
2022/10/07 07:33:36;;;;;;;49.95;46.90;;;10.50;99.90;;;;;;4977194;28;20716;-60
2022/10/07 07:36:15;;;;;;;47.17;43.85;;;10.50;99.90;;;;;;4959846;28;20517;-55
2022/10/07 07:38:42;;;;;;;45.17;42.13;;;10.50;99.90;;;;;;4961755;28;20402;-57
2022/10/07 07:41:08;;;;;;;47.03;43.75;;;10.50;99.90;;;;;;4978068;28;20613;-59
2022/10/07 07:43:35;;;;;;;46.47;43.03;;;10.60;99.90;;;;;;4974940;28;20469;-57
2022/10/07 07:46:01;;;;;;;49.50;46.22;;;10.60;99.90;;;;;;4957514;28;20591;-58
2022/10/07 07:48:26;;;;;;;44.83;41.80;;;10.70;99.90;;;;;;4957751;28;20498;-60
2022/10/07 07:50:52;;;;;;;46.83;43.63;;;10.80;99.90;;;;;;4974682;28;20382;-60
2022/10/07 07:53:18;;;;;;;48.95;45.53;;;10.80;99.90;;;;;;4957378;28;20424;-59
2022/10/07 07:55:56;;;;;;;49.83;46.57;;;10.90;99.90;;;;;;4972783;28;20409;-60
2022/10/07 07:58:23;;;;;;;51.20;47.83;;;11.00;99.90;;;;;;4953211;28;20498;-59
2022/10/07 08:01:07;;;;;;;46.95;43.78;;;11.10;99.90;;;;;;4955778;28;20486;-59
2022/10/07 08:03:37;;;;;;;51.42;48.05;;;11.10;99.90;;;;;;4958827;28;20410;-61
2022/10/07 08:06:05;;;;;;;51.88;48.53;;;11.20;99.90;;;;;;4956678;28;20595;-60
2022/10/07 08:08:31;;;;;;;52.13;48.65;;;11.30;99.90;;;;;;4956714;28;20433;-60
2022/10/07 08:11:05;;;;;;;50.93;47.43;;;11.40;99.90;;;;;;4973120;28;20547;-60
2022/10/07 08:13:31;;;;;;;47.78;44.78;;;11.50;99.90;;;;;;4956471;28;20469;-60
2022/10/07 08:15:58;;;;;;;53.80;50.17;;;11.50;99.90;;;;;;4972152;28;20399;-60
2022/10/07 08:18:23;;;;;;;53.45;50.03;;;11.50;99.90;;;;;;4958235;28;20761;-58
2022/10/07 08:21:09;;;;;;;54.30;51.20;;;11.60;99.90;;;;;;4967655;28;20478;-59
2022/10/07 08:23:36;;;;;;;50.88;47.65;;;11.70;99.90;;;;;;4969218;28;20420;-60
2022/10/07 08:26:03;;;;;;;51.38;47.78;;;11.80;99.90;;;;;;4984646;28;20398;-59
2022/10/07 08:28:29;;;;;;;51.05;47.97;;;11.90;99.90;;;;;;4968914;28;20387;-59
2022/10/07 08:31:07;;;;;;;54.75;51.45;;;11.90;99.90;;;;;;4969268;28;20398;-58
2022/10/07 08:33:35;;;;;;;52.15;48.58;;;12.00;99.90;;;;;;4983188;28;20401;-60
2022/10/07 08:36:03;;;;;;;51.03;47.40;;;12.10;99.90;;;;;;4966554;28;20402;-59
2022/10/07 08:38:35;;;;;;;58.25;54.38;;;12.20;99.90;;;;;;4966098;28;20421;-59
2022/10/07 08:41:32;;;;;;;56.30;52.90;;;12.20;99.90;;;;;;4981821;28;20394;-60
2022/10/07 08:44:19;;;;;;;58.35;54.30;;;12.40;99.90;;;;;;4981302;28;20411;-59
2022/10/07 08:47:07;;;;;;;57.37;53.80;;;12.50;99.90;;;;;;4981091;28;20390;-58
2022/10/07 08:49:57;;;;;;;55.05;51.83;;;12.60;99.90;;;;;;4982163;28;20394;-60
2022/10/07 08:52:40;;;;;;;58.47;54.70;;;12.60;99.90;;;;;;4965966;28;20397;-60
2022/10/07 08:55:21;;;;;;;59.90;55.97;;;12.70;99.90;;;;;;4983441;28;20817;-57
2022/10/07 08:57:49;;;;;;;56.05;52.08;;;12.80;99.90;;;;;;4968258;28;20398;-55
2022/10/07 09:00:19;;;;;;;55.15;51.70;;;13.00;99.90;;;;;;4982349;28;20706;-55
2022/10/07 09:03:15;;;;;;;58.15;54.03;;;13.10;99.90;;;;;;4985243;28;20410;-56
2022/10/07 09:05:45;;;;;;;53.88;50.35;;;13.20;99.90;;;;;;4983000;28;20382;-56
2022/10/07 09:08:31;;;;;;;59.03;55.25;;;13.30;99.90;;;;;;4963822;28;20383;-56
2022/10/07 09:11:14;;;;;;;61.10;57.47;;;13.40;99.90;;;;;;4964431;28;20402;-55
2022/10/07 09:13:47;;;;;;;60.13;56.05;;;13.70;99.90;;;;;;4979593;28;20394;-57
2022/10/07 09:16:27;;;;;;;63.40;58.93;;;14.00;99.90;;;;;;4964380;28;20387;-57
2022/10/07 09:18:56;;;;;;;53.50;49.97;;;14.10;99.90;;;;;;4980494;28;20394;-56
2022/10/07 09:21:36;;;;;;;56.85;53.08;;;14.10;99.90;;;;;;4982214;28;20390;-55
2022/10/07 09:24:22;;;;;;;50.63;47.08;;;14.10;99.90;;;;;;4964939;28;20629;-58
2022/10/07 09:26:47;;;;;;;52.22;48.78;;;14.10;99.90;;;;;;4963389;28;20745;-55
2022/10/07 09:29:17;;;;;;;48.23;45.27;;;14.10;99.90;;;;;;4965747;28;20822;-58
2022/10/07 09:31:42;;;;;;;47.70;44.28;;;14.10;99.90;;;;;;4979949;28;20394;-61
2022/10/07 09:34:21;;;;;;;52.53;48.87;;;14.00;99.90;;;;;;4958952;28;20432;-61
2022/10/07 09:37:08;;;;;;;60.60;56.55;;;14.00;99.90;;;;;;4958728;28;20427;-61
2022/10/07 09:39:34;;;;;;;57.63;53.80;;;14.10;99.90;;;;;;4958584;28;20403;-61
2022/10/07 09:42:00;;;;;;;57.37;53.23;;;14.10;99.90;;;;;;4958315;28;20400;-60
2022/10/07 09:44:26;;;;;;;50.53;47.03;;;14.10;99.90;;;;;;4959922;28;20416;-60
2022/10/07 09:47:10;;;;;;;43.47;40.42;;;14.20;99.90;;;;;;4960310;28;20407;-60
2022/10/07 09:49:47;;;;;;;48.40;45.15;;;14.20;99.90;;;;;;4962524;28;20474;-61
2022/10/07 09:52:13;;;;;;;43.72;41.03;;;14.20;99.90;;;;;;4962559;28;20796;-60
2022/10/07 09:54:39;;;;;;;51.65;48.00;;;14.20;99.90;;;;;;4963243;28;20411;-59
2022/10/07 09:57:19;;;;;;;48.33;45.03;;;14.20;99.90;;;;;;4979708;28;20400;-60
2022/10/07 09:59:45;;;;;;;54.90;51.33;;;14.30;99.90;;;;;;4963641;28;20990;-60
2022/10/07 10:02:14;;;;;;;55.90;52.08;;;14.30;99.90;;;;;;4962457;28;20399;-60
2022/10/07 10:04:57;;;;;;;53.85;50.15;;;14.20;99.90;;;;;;4963117;28;20808;-60
2022/10/07 10:07:26;;;;;;;57.55;54.03;;;14.20;99.90;;;;;;4967108;28;20399;-60
2022/10/07 10:10:04;;;;;;;54.53;50.70;;;14.30;99.90;;;;;;4982850;28;20969;-60
2022/10/07 10:12:36;;;;;;;54.50;50.80;;;14.40;99.90;;;;;;4965132;28;20388;-60
2022/10/07 10:15:21;;;;;;;58.70;54.95;;;14.60;99.90;;;;;;4966243;28;20417;-59
2022/10/07 10:17:47;;;;;;;56.15;52.45;;;14.80;99.90;;;;;;4966005;28;20396;-59
2022/10/07 10:20:27;;;;;;;58.78;54.90;;;15.00;99.90;;;;;;4965126;28;20404;-60
2022/10/07 10:22:53;;;;;;;55.17;51.58;;;15.10;99.90;;;;;;4963174;28;20412;-59
2022/10/07 10:28:57;;;;;;;59.17;55.22;;;15.40;99.90;;;;;;4962771;28;20395;-56
2022/10/07 10:31:38;;;;;;;53.97;50.53;;;15.50;99.90;;;;;;4961027;28;20399;-60
2022/10/07 10:34:19;;;;;;;52.40;49.20;;;15.70;99.90;;;;;;4960166;28;20506;-60
2022/10/07 10:36:52;;;;;;;64.95;60.80;;;15.70;99.90;;;;;;4975323;28;20447;-60
2022/10/07 10:40:01;;;;;;;62.78;58.92;;;15.90;99.90;;;;;;4958014;28;20694;-59
2022/10/07 10:42:53;;;;;;;65.13;61.10;;;16.10;99.90;;;;;;4945797;28;20537;-60
2022/10/07 10:45:33;;;;;;;65.03;61.20;;;16.40;99.90;;;;;;4951524;28;20388;-59
2022/10/07 10:48:15;;;;;;;70.50;65.97;;;16.20;99.90;;;;;;4961474;28;20388;-60
2022/10/07 10:50:47;;;;;;;68.43;64.32;;;16.20;99.90;;;;;;4963983;28;20929;-60
2022/10/07 10:53:36;;;;;;;72.47;67.80;;;16.30;99.90;;;;;;4959164;28;20431;-60
2022/10/07 10:56:09;;;;;;;69.50;65.00;;;16.30;99.90;;;;;;4959657;28;20815;-60
2022/10/07 10:58:53;;;;;;;71.43;66.90;;;16.20;99.90;;;;;;4957524;28;20431;-60
2022/10/07 11:01:40;;;;;;;71.67;67.20;;;16.20;99.90;;;;;;4955567;28;20947;-60
2022/10/07 11:04:41;;;;;;;70.55;66.15;;;16.40;99.90;;;;;;4949926;28;20623;-59
2022/10/07 11:07:16;;;;;;;71.53;66.93;;;16.30;99.90;;;;;;4946684;28;20395;-60
2022/10/07 11:09:47;;;;;;;71.72;67.38;;;16.30;99.90;;;;;;4959513;28;20482;-60
2022/10/07 11:12:38;;;;;;;70.00;65.72;;;16.40;99.90;;;;;;4958779;28;20399;-59
2022/10/07 11:15:15;;;;;;;73.82;69.20;;;16.40;99.90;;;;;;4956453;28;20461;-59
2022/10/07 11:17:41;;;;;;;75.93;71.43;;;16.60;99.90;;;;;;4963811;28;21020;-60
2022/10/07 11:20:19;;;;;;;84.00;78.85;;;16.80;99.90;;;;;;4963737;28;20443;-60
2022/10/07 11:22:53;;;;;;;79.50;74.90;;;16.80;99.90;;;;;;4962280;28;20408;-61
2022/10/07 11:25:30;;;;;;;82.40;77.43;;;16.80;99.90;;;;;;4962365;28;20486;-60
2022/10/07 11:28:06;;;;;;;80.75;75.57;;;16.80;99.90;;;;;;4963014;28;20415;-60
2022/10/07 11:30:41;;;;;;;94.10;88.45;;;16.80;99.90;;;;;;4964938;28;20380;-60
2022/10/07 11:33:14;;;;;;;83.65;78.72;;;16.80;99.90;;;;;;4964314;28;20455;-60
2022/10/07 11:35:42;;;;;;;81.50;76.60;;;16.80;99.90;;;;;;4979573;28;20514;-59
2022/10/07 11:38:15;;;;;;;87.78;82.55;;;17.10;99.90;;;;;;4965222;28;20665;-60
2022/10/07 11:40:48;;;;;;;86.50;81.55;;;17.30;99.90;;;;;;4967702;28;20403;-60
2022/10/07 11:43:20;;;;;;;88.28;83.10;;;17.50;99.90;;;;;;4968696;28;20443;-60
2022/10/07 11:45:51;;;;;;;93.90;88.27;;;17.60;99.90;;;;;;4966336;28;20388;-61
2022/10/07 11:48:43;;;;;;;87.07;82.03;;;17.70;99.90;;;;;;4964132;28;20396;-59
2022/10/07 11:51:21;;;;;;;86.65;81.43;;;17.50;99.90;;;;;;4963802;28;20391;-59
2022/10/07 11:53:47;;;;;;;83.18;78.30;;;17.30;99.90;;;;;;4962664;28;20388;-59
2022/10/07 11:56:20;;;;;;;88.95;83.53;;;17.20;99.90;;;;;;4959985;28;20401;-59
2022/10/07 11:59:02;;;;;;;83.00;78.13;;;17.20;99.90;;;;;;4954799;28;20458;-59
2022/10/07 12:01:33;;;;;;;91.45;85.95;;;17.50;99.90;;;;;;4949835;28;20400;-57
2022/10/07 12:04:23;;;;;;;93.63;88.03;;;17.60;99.90;;;;;;4951105;28;20696;-60
2022/10/07 12:07:27;;;;;;;80.95;76.07;;;17.40;99.90;;;;;;4950798;28;20392;-59
2022/10/07 12:10:04;;;;;;;88.97;83.63;;;17.60;99.90;;;;;;4950504;28;20403;-60
2022/10/07 12:12:45;;;;;;;86.68;81.28;;;17.80;99.90;;;;;;4953432;28;20711;-59
2022/10/07 12:15:34;;;;;;;85.97;80.75;;;18.00;99.90;;;;;;4950930;28;20593;-58
2022/10/07 12:18:05;;;;;;;88.00;82.72;;;17.90;99.90;;;;;;4951423;28;20642;-60
2022/10/07 12:20:41;;;;;;;88.27;83.07;;;18.20;99.90;;;;;;4950434;28;20415;-59
2022/10/07 12:23:19;;;;;;;91.05;85.45;;;18.40;99.90;;;;;;4947917;28;20504;-57
2022/10/07 12:25:50;;;;;;;92.23;86.53;;;18.50;99.90;;;;;;4950690;28;20400;-58
2022/10/07 12:28:38;;;;;;;95.28;89.65;;;18.70;99.90;;;;;;4944773;28;20400;-59
2022/10/07 12:31:22;;;;;;;91.40;85.88;;;18.90;99.90;;;;;;4944000;28;20403;-60
2022/10/07 12:33:57;;;;;;;80.10;75.35;;;18.40;99.90;;;;;;4947660;28;20643;-57
2022/10/07 12:36:26;;;;;;;88.38;82.60;;;18.50;99.90;;;;;;4947278;28;21036;-59
2022/10/07 12:38:55;;;;;;;81.43;76.32;;;18.60;99.90;;;;;;4964020;28;20382;-59
2022/10/07 12:41:37;;;;;;;79.72;75.07;;;18.40;99.90;;;;;;4965489;28;20398;-56
2022/10/07 12:44:29;;;;;;;83.35;78.13;;;18.20;99.90;;;;;;4967824;28;20497;-60
2022/10/07 12:46:56;;;;;;;80.30;75.73;;;18.00;99.90;;;;;;4950643;28;20687;-59
2022/10/07 12:49:47;;;;;;;79.82;74.82;;;18.40;99.90;;;;;;4966660;28;20599;-59
2022/10/07 12:52:35;;;;;;;78.10;73.20;;;18.80;99.90;;;;;;4966349;28;20401;-59
2022/10/07 12:55:39;;;;;;;73.05;68.38;;;19.10;99.90;;;;;;4950410;28;20425;-57
2022/10/07 13:01:45;;;;;;;79.30;74.57;;;19.50;99.90;;;;;;4967320;28;20401;-58
2022/10/07 13:04:42;;;;;;;84.00;78.80;;;19.90;99.90;;;;;;4948822;28;21014;-57
2022/10/07 13:07:42;;;;;;;81.50;76.47;;;19.70;99.90;;;;;;4968400;28;20402;-60
2022/10/07 13:10:40;;;;;;;82.47;77.65;;;19.40;99.90;;;;;;4968516;28;20687;-59